Time;durP1;ratioP1;P1;durP2;ratioP2;P2;SDS_P1;SDS_P2;PMS_P1;PMS_P2;Temp;Humidity;BMP_temperature;BMP_pressure;BME280_temperature;BME280_humidity;BME280_pressure;Samples;Min_cycle;Max_cycle;Signal;HPM_P1;HPM_P2
2022/04/21 00:00:07;;;;;;;;;;;8.50;99.90;;;;;;5000613;28;19922;-67
2022/04/21 00:02:32;;;;;;;;;;;7.60;99.90;;;;;;4999943;28;20346;-68
2022/04/21 00:04:58;;;;;;;;;;;7.60;99.90;;;;;;5006065;28;19922;-68
2022/04/21 00:07:24;;;;;;;;;;;7.60;99.90;;;;;;5002617;28;19933;-67
2022/04/21 00:09:50;;;;;;;;;;;7.60;99.90;;;;;;5008121;28;19922;-68
2022/04/21 00:12:15;;;;;;;;;;;7.60;99.90;;;;;;4998990;28;19922;-66
2022/04/21 00:14:41;;;;;;;;;;;7.50;99.90;;;;;;5002947;28;19929;-68
2022/04/21 00:17:08;;;;;;;;;;;7.50;99.90;;;;;;5009596;28;19972;-67
2022/04/21 00:19:34;;;;;;;;;;;7.50;99.90;;;;;;5005851;28;19922;-67
2022/04/21 00:24:44;;;;;;;;;;;7.50;99.90;;;;;;5003498;28;20027;-68
2022/04/21 00:27:09;;;;;;;;;;;7.40;99.90;;;;;;5003252;28;20433;-66
2022/04/21 00:29:35;;;;;;;;;;;7.40;99.90;;;;;;5006498;28;19926;-69
2022/04/21 00:32:01;;;;;;;;;;;7.40;99.90;;;;;;5002009;28;19929;-68
2022/04/21 00:34:26;;;;;;;;;;;7.30;99.90;;;;;;4996983;28;20426;-68
2022/04/21 00:37:00;;;;;;;;;;;7.30;99.90;;;;;;5001559;28;19968;-67
2022/04/21 00:39:26;;;;;;;;;;;7.30;99.90;;;;;;5004373;28;20430;-67
2022/04/21 00:41:58;;;;;;;;;;;7.30;99.90;;;;;;5003833;28;19925;-68
2022/04/21 00:44:24;;;;;;;;;;;7.30;99.90;;;;;;4996566;28;20005;-67
2022/04/21 00:46:50;;;;;;;;;;;7.90;99.90;;;;;;5005389;28;20397;-67
2022/04/21 00:49:20;;;;;;;;;;;7.30;99.90;;;;;;4998587;28;19929;-68
2022/04/21 00:51:46;;;;;;;;;;;7.30;99.90;;;;;;5004416;28;19921;-67
2022/04/21 00:54:12;;;;;;;;;;;7.20;99.90;;;;;;5007684;28;19928;-68
2022/04/21 00:56:38;;;;;;;;;;;7.20;99.90;;;;;;5000941;28;19921;-66
2022/04/21 00:59:04;;;;;;;;;;;7.20;99.90;;;;;;4982465;28;19922;-67
2022/04/21 01:04:15;;;;;;;;;;;7.20;99.90;;;;;;4997860;28;19976;-67
2022/04/21 01:06:40;;;;;;;;;;;7.70;99.90;;;;;;5002430;28;19922;-68
2022/04/21 01:09:06;;;;;;;;;;;7.50;99.90;;;;;;4999474;28;19921;-68
2022/04/21 01:11:32;;;;;;;;;;;7.20;99.90;;;;;;5006465;28;19929;-68
2022/04/21 01:13:59;;;;;;;;;;;7.20;99.90;;;;;;5006234;28;20342;-67
2022/04/21 01:16:26;;;;;;;;;;;7.20;99.90;;;;;;5008649;28;19929;-67
2022/04/21 01:18:52;;;;;;;;;;;7.20;99.90;;;;;;5010963;28;19925;-67
2022/04/21 01:21:17;;;;;;;;;;;7.60;99.90;;;;;;5004951;28;20389;-68
2022/04/21 01:23:43;;;;;;;;;;;7.20;99.90;;;;;;5003603;28;19922;-67
2022/04/21 01:26:10;;;;;;;;;;;8.10;99.90;;;;;;5004807;28;19983;-68
2022/04/21 01:28:36;;;;;;;;;;;7.10;99.90;;;;;;5004878;28;19983;-68
2022/04/21 01:31:01;;;;;;;;;;;8.60;99.90;;;;;;5005475;28;20083;-68
2022/04/21 01:33:29;;;;;;;;;;;6.10;99.90;;;;;;5006211;28;19922;-67
2022/04/21 01:35:55;;;;;;;;;;;8.00;99.90;;;;;;5008429;28;20420;-68
2022/04/21 01:41:11;;;;;;;;;;;7.00;99.90;;;;;;5000413;28;19921;-68
2022/04/21 01:43:41;;;;;;;;;;;7.00;99.90;;;;;;5008310;28;19917;-67
2022/04/21 01:46:07;;;;;;;;;;;6.90;99.90;;;;;;5004511;28;20374;-67
2022/04/21 01:48:32;;;;;;;;;;;6.90;99.90;;;;;;5004888;28;19980;-68
2022/04/21 01:50:58;;;;;;;;;;;6.90;99.90;;;;;;5004263;28;20021;-68
2022/04/21 01:53:24;;;;;;;;;;;6.90;99.90;;;;;;5004844;28;19929;-68
2022/04/21 01:55:49;;;;;;;;;;;7.10;99.90;;;;;;5010475;28;19921;-67
2022/04/21 01:58:15;;;;;;;;;;;6.90;99.90;;;;;;5008924;28;19921;-68
2022/04/21 02:00:40;;;;;;;;;;;6.90;99.90;;;;;;5009098;28;19925;-67
2022/04/21 02:03:06;;;;;;;;;;;7.20;99.90;;;;;;5004933;28;19921;-67
2022/04/21 02:05:32;;;;;;;;;;;6.80;99.90;;;;;;5006495;28;19926;-67
2022/04/21 02:07:58;;;;;;;;;;;6.80;99.90;;;;;;5010792;28;19929;-68
2022/04/21 02:10:24;;;;;;;;;;;6.90;99.90;;;;;;5004065;28;20396;-66
2022/04/21 02:12:50;;;;;;;;;;;6.80;99.90;;;;;;5019932;28;20012;-68
2022/04/21 02:15:17;;;;;;;;;;;6.70;99.90;;;;;;5001951;28;20378;-67
2022/04/21 02:17:43;;;;;;;;;;;6.80;99.90;;;;;;5007964;28;19921;-68
2022/04/21 02:20:12;;;;;;;;;;;6.70;99.90;;;;;;5011086;28;20318;-67
2022/04/21 02:22:37;;;;;;;;;;;6.70;99.90;;;;;;5005547;28;19925;-68
2022/04/21 02:25:07;;;;;;;;;;;6.70;99.90;;;;;;5002538;28;20277;-69
2022/04/21 02:27:32;;;;;;;;;;;6.70;99.90;;;;;;5005209;28;20043;-67
2022/04/21 02:29:58;;;;;;;;;;;6.70;99.90;;;;;;5009710;28;20015;-69
2022/04/21 02:32:24;;;;;;;;;;;6.70;99.90;;;;;;5004998;28;19926;-68
2022/04/21 02:34:49;;;;;;;;;;;6.70;99.90;;;;;;4998839;28;19922;-68
2022/04/21 02:37:15;;;;;;;;;;;6.80;99.90;;;;;;5003985;28;20401;-68
2022/04/21 02:39:40;;;;;;;;;;;6.80;99.90;;;;;;4997193;28;20449;-68
2022/04/21 02:42:06;;;;;;;;;;;7.90;99.90;;;;;;5007030;28;19922;-68
2022/04/21 02:44:32;;;;;;;;;;;6.70;99.90;;;;;;5002454;28;19927;-68
2022/04/21 02:46:59;;;;;;;;;;;6.70;99.90;;;;;;5001220;28;20023;-67
2022/04/21 02:49:25;;;;;;;;;;;6.70;99.90;;;;;;5006638;28;19925;-68
2022/04/21 02:51:51;;;;;;;;;;;6.70;99.90;;;;;;5008995;28;20367;-68
2022/04/21 02:59:49;;;;;;;;;;;6.60;99.90;;;;;;5003056;28;21686;-68
2022/04/21 03:02:18;;;;;;;;;;;6.60;99.90;;;;;;5002752;28;19943;-68
2022/04/21 03:04:44;;;;;;;;;;;6.60;99.90;;;;;;5007036;28;20584;-67
2022/04/21 03:07:09;;;;;;;;;;;7.00;99.90;;;;;;5005642;28;19988;-68
2022/04/21 03:09:35;;;;;;;;;;;6.60;99.90;;;;;;5001644;28;19933;-67
2022/04/21 03:12:04;;;;;;;;;;;6.60;99.90;;;;;;5005152;28;19933;-67
2022/04/21 03:14:30;;;;;;;;;;;6.60;99.90;;;;;;4998510;28;19968;-67
2022/04/21 03:16:59;;;;;;;;;;;6.60;99.90;;;;;;5008543;28;19926;-67
2022/04/21 03:19:25;;;;;;;;;;;6.60;99.90;;;;;;5003781;28;19928;-68
2022/04/21 03:24:35;;;;;;;;;;;6.60;99.90;;;;;;5004420;28;20012;-68
2022/04/21 03:27:02;;;;;;;;;;;6.60;99.90;;;;;;5006115;28;20269;-68
2022/04/21 03:29:28;;;;;;;;;;;6.60;99.90;;;;;;5006673;28;19925;-67
2022/04/21 03:31:53;;;;;;;;;;;6.60;99.90;;;;;;4998768;28;19921;-67
2022/04/21 03:34:19;;;;;;;;;;;6.60;99.90;;;;;;5005985;28;19925;-68
2022/04/21 03:36:48;;;;;;;;;;;6.50;99.90;;;;;;5021184;28;20299;-68
2022/04/21 03:39:23;;;;;;;;;;;6.50;99.90;;;;;;5005891;28;19921;-68
2022/04/21 03:41:54;;;;;;;;;;;6.70;99.90;;;;;;5013580;28;21149;-68
2022/04/21 03:44:20;;;;;;;;;;;6.50;99.90;;;;;;5010593;28;19967;-67
2022/04/21 03:46:46;;;;;;;;;;;6.50;99.90;;;;;;5004421;28;19922;-68
2022/04/21 03:49:12;;;;;;;;;;;6.50;99.90;;;;;;5005778;28;20430;-69
2022/04/21 03:51:37;;;;;;;;;;;6.40;99.90;;;;;;5004292;28;19969;-68
2022/04/21 03:54:04;;;;;;;;;;;6.50;99.90;;;;;;5001647;28;19921;-67
2022/04/21 03:56:30;;;;;;;;;;;6.40;99.90;;;;;;5009205;28;20035;-68
2022/04/21 03:58:56;;;;;;;;;;;6.40;99.90;;;;;;5003572;28;20012;-68
2022/04/21 04:01:22;;;;;;;;;;;6.30;99.90;;;;;;4999982;28;19921;-68
2022/04/21 04:03:48;;;;;;;;;;;6.30;99.90;;;;;;5004164;28;19980;-68
2022/04/21 04:11:42;;;;;;;;;;;6.30;99.90;;;;;;5008282;28;19937;-68
2022/04/21 04:14:08;;;;;;;;;;;6.30;99.90;;;;;;5007737;28;19925;-67
2022/04/21 04:16:35;;;;;;;;;;;6.30;99.90;;;;;;5001898;28;20334;-68
2022/04/21 04:19:03;;;;;;;;;;;7.60;99.90;;;;;;5004201;28;20336;-68
2022/04/21 04:21:30;;;;;;;;;;;6.30;99.90;;;;;;5006338;28;19925;-67
2022/04/21 04:23:56;;;;;;;;;;;7.40;99.90;;;;;;5002297;28;19928;-68
2022/04/21 04:26:21;;;;;;;;;;;6.30;99.90;;;;;;4999921;28;20008;-67
2022/04/21 04:28:49;;;;;;;;;;;6.30;99.90;;;;;;4998162;28;19922;-68
2022/04/21 04:31:14;;;;;;;;;;;6.40;99.90;;;;;;4996878;28;20383;-68
2022/04/21 04:33:39;;;;;;;;;;;6.20;99.90;;;;;;5006700;28;19921;-69
2022/04/21 04:36:05;;;;;;;;;;;6.30;99.90;;;;;;5004374;28;19940;-67
2022/04/21 04:38:31;;;;;;;;;;;6.40;99.90;;;;;;5008565;28;19934;-67
2022/04/21 04:42:15;;;;;;;;;;;6.20;99.90;;;;;;5008774;28;19921;-68
2022/04/21 04:43:41;;;;;;;;;;;6.20;99.90;;;;;;5003127;28;19921;-68
2022/04/21 04:48:51;;;;;;;;;;;6.20;99.90;;;;;;5006778;28;19929;-67
2022/04/21 04:51:17;;;;;;;;;;;6.20;99.90;;;;;;5007788;28;19929;-68
2022/04/21 04:53:43;;;;;;;;;;;6.20;99.90;;;;;;5020437;28;20402;-69
2022/04/21 04:56:08;;;;;;;;;;;7.40;99.90;;;;;;5008731;28;19922;-67
2022/04/21 04:58:34;;;;;;;;;;;7.80;99.90;;;;;;5005090;28;20011;-68
2022/04/21 05:00:59;;;;;;;;;;;6.30;99.90;;;;;;5001809;28;20332;-70
2022/04/21 05:03:25;;;;;;;;;;;6.40;99.90;;;;;;5003491;28;19922;-69
2022/04/21 05:05:51;;;;;;;;;;;6.40;99.90;;;;;;5003317;28;20032;-68
2022/04/21 05:08:20;;;;;;;;;;;6.40;99.90;;;;;;5007903;28;20063;-67
2022/04/21 05:10:45;;;;;;;;;;;6.40;99.90;;;;;;5010238;28;20024;-68
2022/04/21 05:13:11;;;;;;;;;;;6.50;99.90;;;;;;5014315;28;19921;-68
2022/04/21 05:15:37;;;;;;;;;;;6.50;99.90;;;;;;5007735;28;20068;-67
2022/04/21 05:18:02;;;;;;;;;;;6.50;99.90;;;;;;5003534;28;20395;-68
2022/04/21 05:20:28;;;;;;;;;;;6.50;99.90;;;;;;5016151;28;19929;-68
2022/04/21 05:23:02;;;;;;;;;;;6.60;99.90;;;;;;5006769;28;20043;-68
2022/04/21 05:25:31;;;;;;;;;;;6.60;99.90;;;;;;5019506;28;20008;-68
2022/04/21 05:27:57;;;;;;;;;;;6.70;99.90;;;;;;5009062;28;20395;-69
2022/04/21 05:33:08;;;;;;;;;;;6.80;99.90;;;;;;5012429;28;19928;-68
2022/04/21 05:35:34;;;;;;;;;;;6.90;99.90;;;;;;5003511;28;19922;-69
2022/04/21 05:37:59;;;;;;;;;;;7.20;99.90;;;;;;5007572;28;20271;-70
2022/04/21 05:40:25;;;;;;;;;;;7.50;99.90;;;;;;5001065;28;20000;-68
2022/04/21 05:42:54;;;;;;;;;;;7.80;99.90;;;;;;5004549;28;19921;-67
2022/04/21 05:45:20;;;;;;;;;;;8.20;99.90;;;;;;5000842;28;20345;-68
2022/04/21 05:47:46;;;;;;;;;;;8.30;99.90;;;;;;5025550;28;20052;-69
2022/04/21 05:50:13;;;;;;;;;;;8.20;99.90;;;;;;5001241;28;20026;-69
2022/04/21 05:52:40;;;;;;;;;;;8.30;99.90;;;;;;5005221;28;19926;-67
2022/04/21 05:55:05;;;;;;;;;;;8.20;99.90;;;;;;5012689;28;19931;-69
2022/04/21 05:57:32;;;;;;;;;;;8.20;99.90;;;;;;5008328;28;20375;-69
2022/04/21 05:59:57;;;;;;;;;;;8.20;99.90;;;;;;5004381;28;19921;-68
2022/04/21 06:02:23;;;;;;;;;;;8.20;99.90;;;;;;5004310;28;20456;-68
2022/04/21 06:04:48;;;;;;;;;;;8.30;99.90;;;;;;5000817;28;20020;-69
2022/04/21 06:07:14;;;;;;;;;;;8.50;99.90;;;;;;5011812;28;19979;-68
2022/04/21 06:09:41;;;;;;;;;;;8.60;99.90;;;;;;5005042;28;19928;-68
2022/04/21 06:12:07;;;;;;;;;;;8.90;99.90;;;;;;5002063;28;19944;-69
2022/04/21 06:14:34;;;;;;;;;;;9.00;99.90;;;;;;5011304;28;20328;-67
2022/04/21 06:17:00;;;;;;;;;;;9.30;99.90;;;;;;5000813;28;19921;-67
2022/04/21 06:19:25;;;;;;;;;;;9.70;99.90;;;;;;5004852;28;19928;-69
2022/04/21 06:21:54;;;;;;;;;;;10.20;99.90;;;;;;4996431;28;20635;-67
2022/04/21 06:24:19;;;;;;;;;;;10.80;99.90;;;;;;5003803;28;19981;-68
2022/04/21 06:26:45;;;;;;;;;;;11.50;99.90;;;;;;5009295;28;20294;-68
2022/04/21 06:29:10;;;;;;;;;;;11.10;99.90;;;;;;4996465;28;19925;-67
2022/04/21 06:31:36;;;;;;;;;;;11.80;99.90;;;;;;5005690;28;20366;-68
2022/04/21 06:34:03;;;;;;;;;;;11.90;99.90;;;;;;4998084;28;20043;-69
2022/04/21 06:36:28;;;;;;;;;;;12.30;99.90;;;;;;4999850;28;19999;-67
2022/04/21 06:38:54;;;;;;;;;;;12.40;99.90;;;;;;5029168;28;19922;-67
2022/04/21 06:41:19;;;;;;;;;;;12.40;99.90;;;;;;5006971;28;19925;-68
2022/04/21 06:49:13;;;;;;;;;;;12.00;99.90;;;;;;5013491;28;20363;-69
2022/04/21 06:51:40;;;;;;;;;;;12.10;99.90;;;;;;5013397;28;19922;-67
2022/04/21 06:54:06;;;;;;;;;;;12.40;99.90;;;;;;5014675;28;20431;-68
2022/04/21 06:56:32;;;;;;;;;;;12.60;99.90;;;;;;5013146;28;19921;-68
2022/04/21 06:58:58;;;;;;;;;;;12.70;99.90;;;;;;5009618;28;19937;-68
2022/04/21 07:01:23;;;;;;;;;;;13.00;99.90;;;;;;4995099;28;19932;-68
2022/04/21 07:03:49;;;;;;;;;;;13.00;99.90;;;;;;5010013;28;20000;-67
2022/04/21 07:06:14;;;;;;;;;;;12.80;99.90;;;;;;5012598;28;20325;-68
2022/04/21 07:08:40;;;;;;;;;;;12.60;99.90;;;;;;5012959;28;19929;-68
2022/04/21 07:11:08;;;;;;;;;;;12.50;99.90;;;;;;5013160;28;19925;-68
2022/04/21 07:13:34;;;;;;;;;;;12.40;99.60;;;;;;5012496;28;19927;-67
2022/04/21 07:15:59;;;;;;;;;;;12.30;99.60;;;;;;5013037;28;19999;-68
2022/04/21 07:18:26;;;;;;;;;;;12.30;99.80;;;;;;5000632;28;19926;-67
2022/04/21 07:20:52;;;;;;;;;;;12.40;99.80;;;;;;5002204;28;20004;-68
2022/04/21 07:23:17;;;;;;;;;;;12.30;98.90;;;;;;5014429;28;20012;-69
2022/04/21 07:25:43;;;;;;;;;;;12.50;98.50;;;;;;5009147;28;20371;-68
2022/04/21 07:28:09;;;;;;;;;;;12.50;98.50;;;;;;5014111;28;19928;-68
2022/04/21 07:30:34;;;;;;;;;;;12.70;99.10;;;;;;5013604;28;19921;-68
2022/04/21 07:33:00;;;;;;;;;;;12.70;98.50;;;;;;5006784;28;19921;-68
2022/04/21 07:35:25;;;;;;;;;;;12.80;98.00;;;;;;4994481;28;20300;-68
2022/04/21 07:37:51;;;;;;;;;;;13.00;98.60;;;;;;5009563;28;20360;-68
2022/04/21 07:40:19;;;;;;;;;;;13.10;98.40;;;;;;5009795;28;19925;-69
2022/04/21 07:42:45;;;;;;;;;;;13.30;98.10;;;;;;5013671;28;19964;-68
2022/04/21 07:45:10;;;;;;;;;;;13.70;97.40;;;;;;5014350;28;19921;-68
2022/04/21 07:47:36;;;;;;;;;;;13.30;96.70;;;;;;5012156;28;19921;-69
2022/04/21 07:50:01;;;;;;;;;;;13.30;96.60;;;;;;5013289;28;19929;-70
2022/04/21 07:55:16;;;;;;;;;;;13.50;96.40;;;;;;5013488;28;20017;-69
2022/04/21 07:57:42;;;;;;;;;;;13.90;96.60;;;;;;5012626;28;20011;-69
2022/04/21 08:00:09;;;;;;;;;;;13.80;95.90;;;;;;5011841;28;19960;-68
2022/04/21 08:02:34;;;;;;;;;;;13.90;95.40;;;;;;5012071;28;20386;-69
2022/04/21 08:05:02;;;;;;;;;;;14.10;94.60;;;;;;4994650;28;20016;-67
2022/04/21 08:07:28;;;;;;;;;;;14.10;93.60;;;;;;5012253;28;20349;-67
2022/04/21 08:09:53;;;;;;;;;;;14.10;93.30;;;;;;5012415;28;21557;-68
2022/04/21 08:12:19;;;;;;;;;;;14.10;92.10;;;;;;5013553;28;19922;-69
2022/04/21 08:14:44;;;;;;;;;;;14.10;91.80;;;;;;5012900;28;20288;-68
2022/04/21 08:17:10;;;;;;;;;;;14.20;91.60;;;;;;5012401;28;19921;-69
2022/04/21 08:19:35;;;;;;;;;;;14.20;91.60;;;;;;4999221;28;19929;-68
2022/04/21 08:22:01;;;;;;;;;;;14.30;92.20;;;;;;4993369;28;19922;-68
2022/04/21 08:32:45;;;;;;;;;;;14.50;91.40;;;;;;5011029;28;20297;-68
2022/04/21 08:35:13;;;;;;;;;;;14.70;90.70;;;;;;5011792;28;19928;-69
2022/04/21 08:37:45;;;;;;;;;;;14.60;90.50;;;;;;5012712;28;20008;-69
2022/04/21 08:40:11;;;;;;;;;;;14.60;90.60;;;;;;5012886;28;19922;-67
2022/04/21 08:42:40;;;;;;;;;;;14.70;90.10;;;;;;5012999;28;19975;-68
2022/04/21 08:45:07;;;;;;;;;;;14.80;90.60;;;;;;5011096;28;20056;-69
2022/04/21 08:47:33;;;;;;;;;;;15.00;90.00;;;;;;5010844;28;19921;-70
2022/04/21 08:50:05;;;;;;;;;;;15.10;89.50;;;;;;5003704;28;19922;-68
2022/04/21 08:52:31;;;;;;;;;;;15.20;86.90;;;;;;4993317;28;20334;-69
2022/04/21 08:54:57;;;;;;;;;;;15.20;87.10;;;;;;5009434;28;19921;-68
2022/04/21 08:57:25;;;;;;;;;;;15.20;86.40;;;;;;5012340;28;19921;-68
2022/04/21 08:59:52;;;;;;;;;;;15.10;86.00;;;;;;5011593;28;20005;-69
2022/04/21 09:02:18;;;;;;;;;;;15.30;87.40;;;;;;5012321;28;19929;-70
2022/04/21 09:04:43;;;;;;;;;;;15.30;86.80;;;;;;5011508;28;19921;-68
2022/04/21 09:07:19;;;;;;;;;;;15.30;85.00;;;;;;5016645;28;19922;-67
2022/04/21 09:09:59;;;;;;;;;;;15.30;86.20;;;;;;5012840;28;19928;-67
2022/04/21 09:12:24;;;;;;;;;;;15.20;85.50;;;;;;5012171;28;19992;-69
2022/04/21 09:14:50;;;;;;;;;;;15.30;86.50;;;;;;4995032;28;19922;-69
2022/04/21 09:17:16;;;;;;;;;;;15.20;86.60;;;;;;5010956;28;19921;-68
2022/04/21 09:19:56;;;;;;;;;;;15.30;86.20;;;;;;5010799;28;19921;-69
2022/04/21 09:22:22;;;;;;;;;;;15.40;87.10;;;;;;4998809;28;20012;-69
2022/04/21 09:24:50;;;;;;;;;;;15.50;86.40;;;;;;5025118;28;20012;-70
2022/04/21 09:27:16;;;;;;;;;;;15.70;87.60;;;;;;5013015;28;19921;-69
2022/04/21 09:29:41;;;;;;;;;;;15.80;87.70;;;;;;5012685;28;20339;-68
2022/04/21 09:32:07;;;;;;;;;;;16.10;86.90;;;;;;5012141;28;19921;-69
2022/04/21 09:34:33;;;;;;;;;;;16.10;85.90;;;;;;5001282;28;19969;-69
2022/04/21 09:36:59;;;;;;;;;;;16.10;85.00;;;;;;5012009;28;20299;-68
2022/04/21 09:39:27;;;;;;;;;;;16.10;85.20;;;;;;5011361;28;19921;-70
2022/04/21 09:41:56;;;;;;;;;;;16.40;86.60;;;;;;5016381;28;19917;-68
2022/04/21 09:47:19;;;;;;;;;;;16.50;83.90;;;;;;5013831;28;19928;-69
2022/04/21 09:49:46;;;;;;;;;;;16.30;84.20;;;;;;5006142;28;19925;-68
2022/04/21 09:52:12;;;;;;;;;;;16.40;85.20;;;;;;4994932;28;19979;-69
2022/04/21 09:54:40;;;;;;;;;;;16.60;85.50;;;;;;4996275;28;19968;-69
2022/04/21 09:57:07;;;;;;;;;;;16.60;85.00;;;;;;5009767;28;20401;-68
2022/04/21 09:59:35;;;;;;;;;;;16.90;84.60;;;;;;5014303;28;19921;-69
2022/04/21 10:02:02;;;;;;;;;;;17.20;82.60;;;;;;5013769;28;20390;-69
2022/04/21 10:04:29;;;;;;;;;;;17.20;81.50;;;;;;5014714;28;19921;-70
2022/04/21 10:06:55;;;;;;;;;;;17.20;81.50;;;;;;5014214;28;19992;-68
2022/04/21 10:09:21;;;;;;;;;;;17.20;80.50;;;;;;5014946;28;19921;-69
2022/04/21 10:11:46;;;;;;;;;;;17.30;81.30;;;;;;5015495;28;19932;-70
2022/04/21 10:14:13;;;;;;;;;;;17.50;80.70;;;;;;5015599;28;19922;-69
2022/04/21 10:16:39;;;;;;;;;;;17.30;79.10;;;;;;5014665;28;19921;-69
2022/04/21 10:19:05;;;;;;;;;;;17.30;78.80;;;;;;5014602;28;19921;-68
2022/04/21 10:21:39;;;;;;;;;;;17.30;79.10;;;;;;5015250;28;19998;-68
2022/04/21 10:24:05;;;;;;;;;;;17.50;79.80;;;;;;5014592;28;19940;-69
2022/04/21 10:26:37;;;;;;;;;;;17.80;79.20;;;;;;5014927;28;19921;-69
2022/04/21 10:29:10;;;;;;;;;;;17.90;77.00;;;;;;5008413;28;19988;-69
2022/04/21 10:31:43;;;;;;;;;;;17.90;76.80;;;;;;5000458;28;20375;-69
2022/04/21 10:34:09;;;;;;;;;;;18.00;77.80;;;;;;4999757;28;19953;-69
2022/04/21 10:36:41;;;;;;;;;;;18.10;77.20;;;;;;4995687;28;20343;-69
2022/04/21 10:39:33;;;;;;;;;;;18.40;76.40;;;;;;5014484;28;19928;-70
2022/04/21 10:42:15;;;;;;;;;;;18.70;75.40;;;;;;5013530;28;19929;-69
2022/04/21 10:44:50;;;;;;;;;;;18.80;74.80;;;;;;4977402;28;19924;-68
2022/04/21 10:47:25;;;;;;;;;;;18.90;74.00;;;;;;5000515;28;19928;-68
2022/04/21 10:49:55;;;;;;;;;;;18.90;72.50;;;;;;5014882;28;19933;-70
2022/04/21 10:57:47;;;;;;;;;;;19.40;72.90;;;;;;5014791;28;19921;-70
2022/04/21 11:00:25;;;;;;;;;;;19.10;71.10;;;;;;5013053;28;20379;-69
2022/04/21 11:03:05;;;;;;;;;;;19.40;71.50;;;;;;5004992;28;19922;-70
2022/04/21 11:05:40;;;;;;;;;;;19.30;70.60;;;;;;4994039;28;20222;-68
2022/04/21 11:08:13;;;;;;;;;;;19.50;71.50;;;;;;4993388;28;20013;-69
2022/04/21 11:10:38;;;;;;;;;;;19.80;69.60;;;;;;4993604;28;19980;-68
2022/04/21 11:13:08;;;;;;;;;;;19.90;69.10;;;;;;4994522;28;19972;-70
2022/04/21 11:15:39;;;;;;;;;;;19.60;68.40;;;;;;4994862;28;20358;-69
2022/04/21 11:18:09;;;;;;;;;;;19.40;67.10;;;;;;5007245;28;19921;-71
2022/04/21 11:20:35;;;;;;;;;;;19.10;67.40;;;;;;5013154;28;19921;-69
2022/04/21 11:23:00;;;;;;;;;;;19.00;66.70;;;;;;5010257;28;20000;-69
2022/04/21 11:25:30;;;;;;;;;;;18.40;68.40;;;;;;5004407;28;19969;-70
2022/04/21 11:27:56;;;;;;;;;;;18.40;68.90;;;;;;5007466;28;19925;-69
2022/04/21 11:30:24;;;;;;;;;;;18.30;70.30;;;;;;5014066;28;20012;-70
2022/04/21 11:32:51;;;;;;;;;;;18.10;70.00;;;;;;5013106;28;20364;-69
2022/04/21 11:35:17;;;;;;;;;;;18.30;72.10;;;;;;5017682;28;19977;-69
2022/04/21 11:37:54;;;;;;;;;;;18.40;69.60;;;;;;4992890;28;19976;-68
2022/04/21 11:40:31;;;;;;;;;;;18.70;70.30;;;;;;5009210;28;19967;-68
2022/04/21 11:42:58;;;;;;;;;;;19.20;68.50;;;;;;4997829;28;19921;-69
2022/04/21 11:45:27;;;;;;;;;;;19.00;68.00;;;;;;4994260;28;19988;-69
2022/04/21 11:47:53;;;;;;;;;;;18.90;68.30;;;;;;5008649;28;19922;-69
2022/04/21 11:50:26;;;;;;;;;;;19.50;71.30;;;;;;5013954;28;20399;-69
2022/04/21 11:52:55;;;;;;;;;;;19.90;67.20;;;;;;5013060;28;19921;-69
2022/04/21 11:55:21;;;;;;;;;;;19.90;67.70;;;;;;5012112;28;19922;-70
2022/04/21 11:57:48;;;;;;;;;;;19.80;66.40;;;;;;5012014;28;20012;-70
2022/04/21 12:00:16;;;;;;;;;;;19.70;65.00;;;;;;4996239;28;20398;-68
2022/04/21 12:08:13;;;;;;;;;;;19.90;66.80;;;;;;5001914;28;19921;-69
2022/04/21 12:10:40;;;;;;;;;;;19.90;67.20;;;;;;5013485;28;19925;-70
2022/04/21 12:13:06;;;;;;;;;;;20.10;67.10;;;;;;5011996;28;19922;-69
2022/04/21 12:15:32;;;;;;;;;;;20.20;64.60;;;;;;5012974;28;19921;-69
2022/04/21 12:17:59;;;;;;;;;;;20.50;65.00;;;;;;5001360;28;19922;-68
2022/04/21 12:20:24;;;;;;;;;;;20.30;64.60;;;;;;5007603;28;19921;-69
2022/04/21 12:22:50;;;;;;;;;;;20.00;64.20;;;;;;5011533;28;20302;-68
2022/04/21 12:25:19;;;;;;;;;;;20.00;64.40;;;;;;5007132;28;19928;-70
2022/04/21 12:27:45;;;;;;;;;;;20.40;64.70;;;;;;5013308;28;19975;-69
2022/04/21 12:30:15;;;;;;;;;;;20.50;61.50;;;;;;5012215;28;19921;-69
2022/04/21 12:32:47;;;;;;;;;;;20.10;62.40;;;;;;5002753;28;19922;-69
2022/04/21 12:35:13;;;;;;;;;;;20.20;64.20;;;;;;5013200;28;19921;-68
2022/04/21 12:37:40;;;;;;;;;;;20.50;62.80;;;;;;5011736;28;19921;-69
2022/04/21 12:40:06;;;;;;;;;;;20.00;63.70;;;;;;5012305;28;19981;-69
2022/04/21 12:42:32;;;;;;;;;;;19.80;63.50;;;;;;5011995;28;19925;-69
2022/04/21 12:44:58;;;;;;;;;;;20.00;64.60;;;;;;5012496;28;19926;-69
2022/04/21 12:47:24;;;;;;;;;;;20.00;62.90;;;;;;5010252;28;20104;-69
2022/04/21 12:49:52;;;;;;;;;;;19.30;63.30;;;;;;5011229;28;19987;-69
2022/04/21 12:52:33;;;;;;;;;;;19.20;65.60;;;;;;5013048;28;20403;-69
2022/04/21 12:54:59;;;;;;;;;;;19.40;64.10;;;;;;5011472;28;20290;-70
2022/04/21 12:57:25;;;;;;;;;;;19.30;64.60;;;;;;5012851;28;19975;-70
2022/04/21 12:59:50;;;;;;;;;;;19.70;65.00;;;;;;5008949;28;20329;-69
2022/04/21 13:02:19;;;;;;;;;;;19.90;64.30;;;;;;5026158;28;20333;-69
2022/04/21 13:04:45;;;;;;;;;;;20.00;64.50;;;;;;4995985;28;19927;-69
2022/04/21 13:07:11;;;;;;;;;;;20.30;66.20;;;;;;5014626;28;20429;-69
2022/04/21 13:09:37;;;;;;;;;;;20.30;64.90;;;;;;5008019;28;19921;-70
2022/04/21 13:12:03;;;;;;;;;;;20.40;64.50;;;;;;5008560;28;19921;-71
2022/04/21 13:14:31;;;;;;;;;;;20.30;65.00;;;;;;5008095;28;19976;-69
2022/04/21 13:16:57;;;;;;;;;;;20.60;65.90;;;;;;5000881;28;20015;-70
2022/04/21 13:19:26;;;;;;;;;;;20.60;63.60;;;;;;4994143;28;19937;-70
2022/04/21 13:21:52;;;;;;;;;;;20.40;62.60;;;;;;4994671;28;19932;-68
2022/04/21 13:24:18;;;;;;;;;;;20.30;64.00;;;;;;5003160;28;19926;-68
2022/04/21 13:26:43;;;;;;;;;;;20.30;64.00;;;;;;4992180;28;19925;-68
2022/04/21 13:29:09;;;;;;;;;;;20.30;64.00;;;;;;5005911;28;20008;-70
2022/04/21 13:34:19;;;;;;;;;;;20.00;64.40;;;;;;5005362;28;19925;-71
2022/04/21 13:36:44;;;;;;;;;;;20.20;64.50;;;;;;5012937;28;19995;-69
2022/04/21 13:39:11;;;;;;;;;;;20.20;64.70;;;;;;5012516;28;19925;-70
2022/04/21 13:41:36;;;;;;;;;;;19.80;64.50;;;;;;5010007;28;19947;-69
2022/04/21 13:44:02;;;;;;;;;;;19.50;65.60;;;;;;5012340;28;20399;-69
2022/04/21 13:46:31;;;;;;;;;;;19.80;66.70;;;;;;5012960;28;20315;-69
2022/04/21 13:48:56;;;;;;;;;;;20.20;65.60;;;;;;5010797;28;19926;-71
2022/04/21 13:51:24;;;;;;;;;;;20.40;65.20;;;;;;5011057;28;19925;-70
2022/04/21 13:53:51;;;;;;;;;;;20.40;64.70;;;;;;4999517;28;19930;-70
2022/04/21 13:56:17;;;;;;;;;;;19.70;65.80;;;;;;4999509;28;19969;-69
2022/04/21 13:58:42;;;;;;;;;;;19.90;66.40;;;;;;5010302;28;20288;-69
2022/04/21 14:01:11;;;;;;;;;;;20.20;65.40;;;;;;4993034;28;20383;-70
2022/04/21 14:03:36;;;;;;;;;;;20.30;64.30;;;;;;5010302;28;19932;-70
2022/04/21 14:06:08;;;;;;;;;;;20.50;62.90;;;;;;5012287;28;19925;-69
2022/04/21 14:08:34;;;;;;;;;;;20.20;64.10;;;;;;5012402;28;19933;-70
2022/04/21 14:11:01;;;;;;;;;;;20.30;64.80;;;;;;5005231;28;19932;-71
2022/04/21 14:13:26;;;;;;;;;;;20.20;65.50;;;;;;4999723;28;19926;-68
2022/04/21 14:15:53;;;;;;;;;;;20.10;66.50;;;;;;4997182;28;19992;-69
2022/04/21 14:18:19;;;;;;;;;;;19.90;65.00;;;;;;5002408;28;19989;-70
2022/04/21 14:20:46;;;;;;;;;;;20.10;64.50;;;;;;5006059;28;20466;-70
2022/04/21 14:23:15;;;;;;;;;;;19.40;66.60;;;;;;5006119;28;19937;-69
2022/04/21 14:25:41;;;;;;;;;;;18.50;67.80;;;;;;5001848;28;19925;-69
2022/04/21 14:28:07;;;;;;;;;;;18.20;69.70;;;;;;5006747;28;19933;-68
2022/04/21 14:30:32;;;;;;;;;;;18.00;72.10;;;;;;5010470;28;19925;-70
2022/04/21 14:33:00;;;;;;;;;;;17.80;72.60;;;;;;5008861;28;19933;-69
2022/04/21 14:35:25;;;;;;;;;;;17.50;72.90;;;;;;5010683;28;19963;-71
2022/04/21 14:46:04;;;;;;;;;;;16.60;76.60;;;;;;5008410;28;19960;-69
2022/04/21 14:48:30;;;;;;;;;;;16.50;77.30;;;;;;5016526;28;19983;-71
2022/04/21 14:50:56;;;;;;;;;;;16.50;78.40;;;;;;5007500;28;20394;-69
2022/04/21 14:53:25;;;;;;;;;;;16.30;78.30;;;;;;5008017;28;20359;-69
2022/04/21 14:55:51;;;;;;;;;;;16.30;79.90;;;;;;5020670;28;19934;-70
2022/04/21 14:58:18;;;;;;;;;;;16.30;80.60;;;;;;5002574;28;20011;-68
2022/04/21 15:00:46;;;;;;;;;;;16.30;80.70;;;;;;5013953;28;19925;-69
2022/04/21 15:03:12;;;;;;;;;;;17.30;81.50;;;;;;5000756;28;19925;-72
2022/04/21 15:05:38;;;;;;;;;;;16.50;80.90;;;;;;5001142;28;20287;-70
2022/04/21 15:08:05;;;;;;;;;;;16.30;81.50;;;;;;5001171;28;19925;-69
2022/04/21 15:10:33;;;;;;;;;;;16.30;82.10;;;;;;5020795;28;20012;-70
2022/04/21 15:12:58;;;;;;;;;;;16.20;83.30;;;;;;5002364;28;19975;-70
2022/04/21 15:15:24;;;;;;;;;;;16.10;83.70;;;;;;5003581;28;19933;-69
2022/04/21 15:17:49;;;;;;;;;;;15.90;83.80;;;;;;5002771;28;19925;-70
2022/04/21 15:20:16;;;;;;;;;;;15.80;84.50;;;;;;4997712;28;19925;-69
2022/04/21 15:22:41;;;;;;;;;;;15.40;86.20;;;;;;4998666;28;19962;-70
2022/04/21 15:25:07;;;;;;;;;;;15.40;86.90;;;;;;5007789;28;19925;-69
2022/04/21 15:27:33;;;;;;;;;;;15.50;87.10;;;;;;4994329;28;20314;-68